CheckWX is a tool to help pilots better visualize weather data.  It is not intended as a substitute for an official pre-flight weather briefing.

03:31:34 UTC

YSWG METAR
Wagga Wagga City Airport
Wagga Wagga, Australia
Current

32 mins ago

YSWG 220300Z 08003KT 9999 FEW025 15/08 Q1015
Observed
Jul-22 @ 03:00 UTC
Wind
  • 080° at 3 KTS
Visibility
10,000+ meters
Flight Rules
VFR
Cloud Levels
  • Few at 2,500' AGL
Temperature
15°C / 59°F
Dewpoint
C / 46°F
Humidity
63%
Altimeter
29.97" Hg
Pressure
1014.92 hPa
Previous

2 hours ago

YSWG 220200Z 05004KT 020V080 CAVOK 14/07 Q1016
Observed
Jul-22 @ 02:00 UTC
Wind
  • 050° at 4 KTS
Visibility
10,000+ meters
Flight Rules
VFR
Cloud Levels
  • Clear skies
Temperature
14°C / 57°F
Dewpoint
C / 45°F
Humidity
63%
Altimeter
30" Hg
Pressure
1015.92 hPa
Previous

3 hours ago

YSWG 220100Z 08004KT CAVOK 12/08 Q1017
Observed
Jul-22 @ 01:00 UTC
Wind
  • 080° at 4 KTS
Visibility
10,000+ meters
Flight Rules
VFR
Cloud Levels
  • Clear skies
Temperature
12°C / 54°F
Dewpoint
C / 46°F
Humidity
77%
Altimeter
30.03" Hg
Pressure
1016.92 hPa